Tara — FVNM — position and weather

sailwx.info

Track history (hours):
 
Tides and Currents Weather Stations Pressure Air Temp Water Temp Dewpoint Dewpoint Depression Visibility Wind Speed Wind Dir Waves Ship Positions

Oceanographic research ship Tara (France)

Ex Antarctica.

Ship's website: http://www.taraexpeditions.org/site/index.php?id_lang_global_new=uk

Last reported at 2015-Aug-04 04:00 UTC. Time now 2015-Aug-04 05:25 UTC.
Position N 72°54' W 024°36'.

Length 36 m; beam 10 m.

Wind from 110 at 7 knots

Barometer 1020.2 mb
Air temperature 8.0 ° C
Dewpoint 4.0 ° C
Water temperature 9.2 ° C

Date/timePositionNaut miles runAvg speedWind from/ knotsBaromVisibWave heightAir tempDewpointWater temp
2015-Aug-04 04:00N 72°54' W 024°36'35 7.1 110 / 71020.2 8.0 4.0 9.2
2015-Aug-03 23:00N 73°06' W 022°42'9 9.2 130 / 101020.2 6.9 2.7 6.4
2015-Aug-03 22:00N 73°12' W 022°18'14 6.8 090 / 71020.4 4.9 3.9 5.7
2015-Aug-03 20:00N 73°18' W 021°36'6 6.2 120 / 31020.3 3.4 1.9 5.0
2015-Aug-03 19:00N 73°24' W 021°30'0 0.0 140 / 31019.9 4.2 1.9 3.0
2015-Aug-03 14:00N 73°24' W 021°30'6 6.0 120 / 51019.9 4.4 2.2 3.0
2015-Aug-03 13:00N 73°18' W 021°30'2 0.2 110 / 91019.7 3.9 1.7 3.4
2015-Aug-03 02:00N 73°18' W 021°36'2 0.1 270 / 21019.4 3.9 1.9 1.2
2015-Aug-02 13:00N 73°18' W 021°42'2 1.7 240 / 41022.9 5.0 2.4 1.4
2015-Aug-02 12:00N 73°18' W 021°48'8 7.9 210 / 41023.0 6.4 3.7 3.4
2015-Aug-02 11:00N 73°12' W 022°06'5 5.2 220 / 51023.3 5.2 1.4 2.0
2015-Aug-02 10:00N 73°12' W 022°24'7 3.5 180 / 51023.4 7.4 4.4 7.0
2015-Aug-02 08:00N 73°06' W 022°36'0 0.0 210 / 41023.6 9.9 3.2 6.9
2015-Aug-02 06:00N 73°06' W 022°36'52 5.7 210 / 71023.4 8.4 4.0 6.7
2015-Aug-01 21:00N 73°24' W 025°24'19 6.2 330 / 21023.1 12.9 1.0 9.4
2015-Aug-01 18:00N 73°06' W 025°42'17 1.0 320 / 171022.7 16.4-1.7 7.5
2015-Aug-01 01:00N 73°00' W 024°48'2 0.1 250 / 161024.5 10.9 5.7 8.2
2015-Jul-31 10:00N 73°00' W 024°42'2 0.1 240 / 51020.7 9.9 6.2 8.0
2015-Jul-30 07:00N 73°00' W 024°36'22 5.5 240 / 31018.2 9.5 3.7 7.4
2015-Jul-30 03:00N 73°06' W 023°24'5 5.2 260 / 71018.0 10.2 4.0 7.7
2015-Jul-30 02:00N 73°06' W 023°06'5 5.2 260 / 151017.9 9.7 4.4 7.7
2015-Jul-30 01:00N 73°06' W 022°48'8 8.0 350 / 91017.9 9.5 4.9 7.5
2015-Jul-30 00:00N 73°00' W 022°30'7 3.5 350 / 131017.7 6.7 3.9 5.4
2015-Jul-29 22:00N 73°00' W 022°06'5 5.3 320 / 181017.2 8.2 4.0 7.5
2015-Jul-29 21:00N 73°00' W 021°48'7 7.0 300 / 161017.1 8.4 4.2 3.9
2015-Jul-29 20:00N 72°54' W 021°36'8 8.0 320 / 61017.2 7.2 3.4 1.7
2015-Jul-29 19:00N 72°48' W 021°18'2 1.8 280 / 61017.1 3.7 1.7 1.4
2015-Jul-29 18:00N 72°48' W 021°12'6 6.3 250 / 91017.2 3.9 1.4 2.7
2015-Jul-29 17:00N 72°42' W 021°18'1212.0 240 / 121017.5 3.9 1.5 2.7
2015-Jul-29 16:00N 72°30' W 021°18'4 3.6 240 / 91017.5 3.9 1.0 2.2
2015-Jul-29 15:00N 72°30' W 021°30'6 6.3 240 / 41017.7 3.5 1.2 2.4
2015-Jul-29 14:00N 72°24' W 021°24'6 6.0 260 / 81017.6 2.7 1.2 2.4
2015-Jul-29 13:00N 72°18' W 021°24'6 6.0 280 / 71017.7 2.9 1.4 2.4
2015-Jul-29 12:00N 72°12' W 021°24'6 6.0 310 / 71017.6 1.7 0.7 2.2
2015-Jul-29 11:00N 72°06' W 021°24'6 6.0 330 / 41017.4 1.4 0.2 1.7
2015-Jul-29 10:00N 72°00' W 021°24'6 6.3 010 / 81017.2 1.9 0.4 2.0
2015-Jul-29 09:00N 71°54' W 021°18'6 6.0 350 / 51017.0 1.4 0.2 1.9
2015-Jul-29 08:00N 71°48' W 021°18'7 7.1 340 / 51016.7 0.9-0.5 1.5
2015-Jul-29 07:00N 71°42' W 021°30'6 6.0 360 / 51016.6 0.4-0.6 1.7
2015-Jul-29 06:00N 71°36' W 021°30'6 6.3 030 / 61016.3 -0.3-1.1 1.2
2015-Jul-29 05:00N 71°30' W 021°24'6 6.0 050 / 31015.9 -0.5-1.3 1.2
2015-Jul-29 04:00N 71°24' W 021°24'6 6.3 200 / 11015.8 -1.5-2.2 0.4
2015-Jul-29 03:00N 71°18' W 021°18'6 6.0 120 / 21015.8 -1.3-2.1 0.9
2015-Jul-29 02:00N 71°12' W 021°18'6 6.0 070 / 11015.8 -1.0-1.8 0.9
2015-Jul-29 01:00N 71°06' W 021°18'6 6.0 190 / 11015.8 0.9-0.3 2.0
2015-Jul-29 00:00N 71°00' W 021°18'6 6.0 360 / 11015.7 1.7 0.4 1.7
2015-Jul-28 23:00N 70°54' W 021°18'6 6.0 030 / 21015.6 1.9 0.7 1.4
2015-Jul-28 22:00N 70°48' W 021°18'6 6.0 300 / 31015.6 0.9-0.3 0.7
2015-Jul-28 21:00N 70°42' W 021°18'6 6.0 190 / 21015.6 2.2 0.2 0.9
2015-Jul-28 20:00N 70°36' W 021°18'1212.2 230 / 51015.7 1.4 0.2 1.4
2015-Jul-28 19:00N 70°24' W 021°12'0 0.0 240 / 71015.6 1.9 0.2 1.0
2015-Jul-28 18:00N 70°24' W 021°12'7 7.2 230 / 61015.7 1.5-0.0 1.2
2015-Jul-28 17:00N 70°18' W 021°24'4 4.0 210 / 51015.8 1.7 0.5 1.5
2015-Jul-28 16:00N 70°18' W 021°36'9 8.5 210 / 61015.9 1.4 0.2 1.7
2015-Jul-28 15:00N 70°12' W 021°54'6 2.1 190 / 51016.1 1.7 0.4 3.0
2015-Jul-28 12:00N 70°06' W 022°00'2 2.0 180 / 71016.0 0.7-0.3 2.2
2015-Jul-28 11:00N 70°06' W 022°06'7 7.3 210 / 91015.8 1.2-0.1 0.4
2015-Jul-28 10:00N 70°00' W 022°18'7 7.3 230 / 51016.1 0.2-0.5 0.5
2015-Jul-28 09:00N 69°54' W 022°30'4 4.1 220 / 31016.2 -0.3-0.7 0.9
2015-Jul-28 08:00N 69°54' W 022°42'0 0.0 190 / 61016.0 -0.3-0.7 0.7
2015-Jul-26 22:00N 69°54' W 022°42'6 0.8 1016.3 -0.3-0.6 1.4
2015-Jul-26 14:00N 69°48' W 022°48'6 6.3 200 / 81016.7 -0.3-0.7 0.2
2015-Jul-26 13:00N 69°42' W 022°42'2 2.1 220 / 71016.8 -0.2-0.6 0.2
2015-Jul-26 12:00N 69°42' W 022°36'6 3.2 220 / 81016.5 -0.2-0.8 0.7
2015-Jul-26 10:00N 69°36' W 022°30'2 1.0 210 / 71016.4 0.4-0.1
2015-Jul-26 08:00N 69°36' W 022°24'2 2.1 190 / 51016.4 -0.3-0.6
2015-Jul-26 07:00N 69°36' W 022°18'2 2.1 170 / 91016.2 -0.1-0.3
2015-Jul-26 06:00N 69°36' W 022°12'7 7.3 220 / 71016.3 0.4-0.0 0.9
2015-Jul-26 05:00N 69°30' W 022°00'6 6.4 240 / 71016.2 0.4-0.1 0.4
2015-Jul-26 04:00N 69°24' W 021°54'0 0.0 190 / 61016.3 0.4-0.1
2015-Jul-26 03:00N 69°24' W 021°54'6 6.4 180 / 91016.4 1.4 0.9 0.4
2015-Jul-26 02:00N 69°18' W 021°48'7 7.4 180 / 91016.8 1.9 1.5 2.0
2015-Jul-26 01:00N 69°12' W 021°36'6 6.4 180 / 81017.0 2.2 1.9 1.9
2015-Jul-26 00:00N 69°06' W 021°30'7 7.4 180 / 81017.2 2.9 2.2 3.2
2015-Jul-25 23:00N 69°00' W 021°18'6 6.4 180 / 71017.1 2.9 2.4 3.5
2015-Jul-25 22:00N 68°54' W 021°12'6 6.4 170 / 61017.2 3.2 2.5 3.9
2015-Jul-25 21:00N 68°48' W 021°06'7 7.4 170 / 61017.3 3.2 2.5 3.9
2015-Jul-25 20:00N 68°42' W 020°54'6 6.4 140 / 61017.6 3.5 2.9 4.2
2015-Jul-25 19:00N 68°36' W 020°48'7 7.4 150 / 51017.7 3.7 3.2 4.2
2015-Jul-25 18:00N 68°30' W 020°36'6 6.4 120 / 51017.5 3.7 3.0 4.2
2015-Jul-25 17:00N 68°24' W 020°30'6 6.4 130 / 41017.6 3.9 3.0 4.2
2015-Jul-25 16:00N 68°18' W 020°24'7 7.5 120 / 41017.9 3.9 3.2 3.9
2015-Jul-25 15:00N 68°12' W 020°12'13 6.4 110 / 31018.0 4.0 3.4 4.0
2015-Jul-25 13:00N 68°00' W 020°00'6 6.0 070 / 61018.1 4.2 3.2 4.7
2015-Jul-25 12:00N 67°54' W 020°00'2 2.3 050 / 71018.0 4.2 3.2 4.7
2015-Jul-25 11:00N 67°54' W 019°54'0 0.0 060 / 71018.1 4.5 3.2 4.7
2015-Jul-25 10:00N 67°54' W 019°54'6 6.4 060 / 71017.9 4.5 3.4 5.2
2015-Jul-25 09:00N 67°48' W 019°48'6 6.4 070 / 51017.8 5.2 3.4 6.2
2015-Jul-25 08:00N 67°42' W 019°42'6 6.4 070 / 51017.8 5.5 4.2 7.4
2015-Jul-25 07:00N 67°36' W 019°36'1212.2 060 / 61017.6 5.9 3.9 7.4
2015-Jul-25 06:00N 67°24' W 019°30'6 6.4 070 / 61017.6 6.0 3.7 7.7
2015-Jul-25 05:00N 67°18' W 019°24'8 7.6 070 / 81017.4 6.2 4.0 7.5
2015-Jul-25 04:00N 67°12' W 019°12'   070 / 71017.1 6.5 4.0 7.7
Track history (hours):
 
Tides and Currents Weather Stations Pressure Air Temp Water Temp Dewpoint Dewpoint Depression Visibility Wind Speed Wind Dir Waves Ship Positions

Oceanographic research ship Tara (France)

Ex Antarctica.

Ship's website: http://www.taraexpeditions.org/site/index.php?id_lang_global_new=uk

Last reported at 2015-Aug-04 04:00 UTC. Time now 2015-Aug-04 05:25 UTC.
Position N 72°54' W 024°36'.

Length 36 m; beam 10 m.

Wind from 110 at 7 knots

Barometer 1020.2 mb
Air temperature 8.0 ° C
Dewpoint 4.0 ° C
Water temperature 9.2 ° C

Date/timePositionNaut miles runAvg speedWind from/ knotsBaromVisibWave heightAir tempDewpointWater temp
2015-Aug-04 04:00N 72°54' W 024°36'35 7.1 110 / 71020.2 8.0 4.0 9.2
2015-Aug-03 23:00N 73°06' W 022°42'9 9.2 130 / 101020.2 6.9 2.7 6.4
2015-Aug-03 22:00N 73°12' W 022°18'14 6.8 090 / 71020.4 4.9 3.9 5.7
2015-Aug-03 20:00N 73°18' W 021°36'6 6.2 120 / 31020.3 3.4 1.9 5.0
2015-Aug-03 19:00N 73°24' W 021°30'0 0.0 140 / 31019.9 4.2 1.9 3.0
2015-Aug-03 14:00N 73°24' W 021°30'6 6.0 120 / 51019.9 4.4 2.2 3.0
2015-Aug-03 13:00N 73°18' W 021°30'2 0.2 110 / 91019.7 3.9 1.7 3.4
2015-Aug-03 02:00N 73°18' W 021°36'2 0.1 270 / 21019.4 3.9 1.9 1.2
2015-Aug-02 13:00N 73°18' W 021°42'2 1.7 240 / 41022.9 5.0 2.4 1.4
2015-Aug-02 12:00N 73°18' W 021°48'8 7.9 210 / 41023.0 6.4 3.7 3.4
2015-Aug-02 11:00N 73°12' W 022°06'5 5.2 220 / 51023.3 5.2 1.4 2.0
2015-Aug-02 10:00N 73°12' W 022°24'7 3.5 180 / 51023.4 7.4 4.4 7.0
2015-Aug-02 08:00N 73°06' W 022°36'0 0.0 210 / 41023.6 9.9 3.2 6.9
2015-Aug-02 06:00N 73°06' W 022°36'52 5.7 210 / 71023.4 8.4 4.0 6.7
2015-Aug-01 21:00N 73°24' W 025°24'19 6.2 330 / 21023.1 12.9 1.0 9.4
2015-Aug-01 18:00N 73°06' W 025°42'17 1.0 320 / 171022.7 16.4-1.7 7.5
2015-Aug-01 01:00N 73°00' W 024°48'2 0.1 250 / 161024.5 10.9 5.7 8.2
2015-Jul-31 10:00N 73°00' W 024°42'2 0.1 240 / 51020.7 9.9 6.2 8.0
2015-Jul-30 07:00N 73°00' W 024°36'22 5.5 240 / 31018.2 9.5 3.7 7.4
2015-Jul-30 03:00N 73°06' W 023°24'5 5.2 260 / 71018.0 10.2 4.0 7.7
2015-Jul-30 02:00N 73°06' W 023°06'5 5.2 260 / 151017.9 9.7 4.4 7.7
2015-Jul-30 01:00N 73°06' W 022°48'8 8.0 350 / 91017.9 9.5 4.9 7.5
2015-Jul-30 00:00N 73°00' W 022°30'7 3.5 350 / 131017.7 6.7 3.9 5.4
2015-Jul-29 22:00N 73°00' W 022°06'5 5.3 320 / 181017.2 8.2 4.0 7.5
2015-Jul-29 21:00N 73°00' W 021°48'7 7.0 300 / 161017.1 8.4 4.2 3.9
2015-Jul-29 20:00N 72°54' W 021°36'8 8.0 320 / 61017.2 7.2 3.4 1.7
2015-Jul-29 19:00N 72°48' W 021°18'2 1.8 280 / 61017.1 3.7 1.7 1.4
2015-Jul-29 18:00N 72°48' W 021°12'6 6.3 250 / 91017.2 3.9 1.4 2.7
2015-Jul-29 17:00N 72°42' W 021°18'1212.0 240 / 121017.5 3.9 1.5 2.7
2015-Jul-29 16:00N 72°30' W 021°18'4 3.6 240 / 91017.5 3.9 1.0 2.2
2015-Jul-29 15:00N 72°30' W 021°30'6 6.3 240 / 41017.7 3.5 1.2 2.4
2015-Jul-29 14:00N 72°24' W 021°24'6 6.0 260 / 81017.6 2.7 1.2 2.4
2015-Jul-29 13:00N 72°18' W 021°24'6 6.0 280 / 71017.7 2.9 1.4 2.4
2015-Jul-29 12:00N 72°12' W 021°24'6 6.0 310 / 71017.6 1.7 0.7 2.2
2015-Jul-29 11:00N 72°06' W 021°24'6 6.0 330 / 41017.4 1.4 0.2 1.7
2015-Jul-29 10:00N 72°00' W 021°24'6 6.3 010 / 81017.2 1.9 0.4 2.0
2015-Jul-29 09:00N 71°54' W 021°18'6 6.0 350 / 51017.0 1.4 0.2 1.9
2015-Jul-29 08:00N 71°48' W 021°18'7 7.1 340 / 51016.7 0.9-0.5 1.5
2015-Jul-29 07:00N 71°42' W 021°30'6 6.0 360 / 51016.6 0.4-0.6 1.7
2015-Jul-29 06:00N 71°36' W 021°30'6 6.3 030 / 61016.3 -0.3-1.1 1.2
2015-Jul-29 05:00N 71°30' W 021°24'6 6.0 050 / 31015.9 -0.5-1.3 1.2
2015-Jul-29 04:00N 71°24' W 021°24'6 6.3 200 / 11015.8 -1.5-2.2 0.4
2015-Jul-29 03:00N 71°18' W 021°18'6 6.0 120 / 21015.8 -1.3-2.1 0.9
2015-Jul-29 02:00N 71°12' W 021°18'6 6.0 070 / 11015.8 -1.0-1.8 0.9
2015-Jul-29 01:00N 71°06' W 021°18'6 6.0 190 / 11015.8 0.9-0.3 2.0
2015-Jul-29 00:00N 71°00' W 021°18'6 6.0 360 / 11015.7 1.7 0.4 1.7
2015-Jul-28 23:00N 70°54' W 021°18'6 6.0 030 / 21015.6 1.9 0.7 1.4
2015-Jul-28 22:00N 70°48' W 021°18'6 6.0 300 / 31015.6 0.9-0.3 0.7
2015-Jul-28 21:00N 70°42' W 021°18'6 6.0 190 / 21015.6 2.2 0.2 0.9
2015-Jul-28 20:00N 70°36' W 021°18'1212.2 230 / 51015.7 1.4 0.2 1.4
2015-Jul-28 19:00N 70°24' W 021°12'0 0.0 240 / 71015.6 1.9 0.2 1.0
2015-Jul-28 18:00N 70°24' W 021°12'7 7.2 230 / 61015.7 1.5-0.0 1.2
2015-Jul-28 17:00N 70°18' W 021°24'4 4.0 210 / 51015.8 1.7 0.5 1.5
2015-Jul-28 16:00N 70°18' W 021°36'9 8.5 210 / 61015.9 1.4 0.2 1.7
2015-Jul-28 15:00N 70°12' W 021°54'6 2.1 190 / 51016.1 1.7 0.4 3.0
2015-Jul-28 12:00N 70°06' W 022°00'2 2.0 180 / 71016.0 0.7-0.3 2.2
2015-Jul-28 11:00N 70°06' W 022°06'7 7.3 210 / 91015.8 1.2-0.1 0.4
2015-Jul-28 10:00N 70°00' W 022°18'7 7.3 230 / 51016.1 0.2-0.5 0.5
2015-Jul-28 09:00N 69°54' W 022°30'4 4.1 220 / 31016.2 -0.3-0.7 0.9
2015-Jul-28 08:00N 69°54' W 022°42'0 0.0 190 / 61016.0 -0.3-0.7 0.7
2015-Jul-26 22:00N 69°54' W 022°42'6 0.8 1016.3 -0.3-0.6 1.4
2015-Jul-26 14:00N 69°48' W 022°48'6 6.3 200 / 81016.7 -0.3-0.7 0.2
2015-Jul-26 13:00N 69°42' W 022°42'2 2.1 220 / 71016.8 -0.2-0.6 0.2
2015-Jul-26 12:00N 69°42' W 022°36'6 3.2 220 / 81016.5 -0.2-0.8 0.7
2015-Jul-26 10:00N 69°36' W 022°30'2 1.0 210 / 71016.4 0.4-0.1
2015-Jul-26 08:00N 69°36' W 022°24'2 2.1 190 / 51016.4 -0.3-0.6
2015-Jul-26 07:00N 69°36' W 022°18'2 2.1 170 / 91016.2 -0.1-0.3
2015-Jul-26 06:00N 69°36' W 022°12'7 7.3 220 / 71016.3 0.4-0.0 0.9
2015-Jul-26 05:00N 69°30' W 022°00'6 6.4 240 / 71016.2 0.4-0.1 0.4
2015-Jul-26 04:00N 69°24' W 021°54'0 0.0 190 / 61016.3 0.4-0.1
2015-Jul-26 03:00N 69°24' W 021°54'6 6.4 180 / 91016.4 1.4 0.9 0.4
2015-Jul-26 02:00N 69°18' W 021°48'7 7.4 180 / 91016.8 1.9 1.5 2.0
2015-Jul-26 01:00N 69°12' W 021°36'6 6.4 180 / 81017.0 2.2 1.9 1.9
2015-Jul-26 00:00N 69°06' W 021°30'7 7.4 180 / 81017.2 2.9 2.2 3.2
2015-Jul-25 23:00N 69°00' W 021°18'6 6.4 180 / 71017.1 2.9 2.4 3.5
2015-Jul-25 22:00N 68°54' W 021°12'6 6.4 170 / 61017.2 3.2 2.5 3.9
2015-Jul-25 21:00N 68°48' W 021°06'7 7.4 170 / 61017.3 3.2 2.5 3.9
2015-Jul-25 20:00N 68°42' W 020°54'6 6.4 140 / 61017.6 3.5 2.9 4.2
2015-Jul-25 19:00N 68°36' W 020°48'7 7.4 150 / 51017.7 3.7 3.2 4.2
2015-Jul-25 18:00N 68°30' W 020°36'6 6.4 120 / 51017.5 3.7 3.0 4.2
2015-Jul-25 17:00N 68°24' W 020°30'6 6.4 130 / 41017.6 3.9 3.0 4.2
2015-Jul-25 16:00N 68°18' W 020°24'7 7.5 120 / 41017.9 3.9 3.2 3.9
2015-Jul-25 15:00N 68°12' W 020°12'13 6.4 110 / 31018.0 4.0 3.4 4.0
2015-Jul-25 13:00N 68°00' W 020°00'6 6.0 070 / 61018.1 4.2 3.2 4.7
2015-Jul-25 12:00N 67°54' W 020°00'2 2.3 050 / 71018.0 4.2 3.2 4.7
2015-Jul-25 11:00N 67°54' W 019°54'0 0.0 060 / 71018.1 4.5 3.2 4.7
2015-Jul-25 10:00N 67°54' W 019°54'6 6.4 060 / 71017.9 4.5 3.4 5.2
2015-Jul-25 09:00N 67°48' W 019°48'6 6.4 070 / 51017.8 5.2 3.4 6.2
2015-Jul-25 08:00N 67°42' W 019°42'6 6.4 070 / 51017.8 5.5 4.2 7.4
2015-Jul-25 07:00N 67°36' W 019°36'1212.2 060 / 61017.6 5.9 3.9 7.4
2015-Jul-25 06:00N 67°24' W 019°30'6 6.4 070 / 61017.6 6.0 3.7 7.7
2015-Jul-25 05:00N 67°18' W 019°24'8 7.6 070 / 81017.4 6.2 4.0 7.5
2015-Jul-25 04:00N 67°12' W 019°12'   070 / 71017.1 6.5 4.0 7.7

Dump ship's entire track history